Time;durP1;ratioP1;P1;durP2;ratioP2;P2;SDS_P1;SDS_P2;PMS_P1;PMS_P2;Temp;Humidity;BMP_temperature;BMP_pressure;BME280_temperature;BME280_humidity;BME280_pressure;Samples;Min_cycle;Max_cycle;Signal;HPM_P1;HPM_P2
2021/12/07 00:04:53;;;;;;;39.40;10.73;;;;;;;7.27;100.00;100230.06;31328686;28;20089;-82
2021/12/07 00:19:55;;;;;;;110.67;12.43;;;;;;;7.29;100.00;100206.16;31303594;28;20085;-83
2021/12/07 00:50:03;;;;;;;125.17;13.43;;;;;;;7.33;100.00;100177.16;31294644;28;20484;-71
2021/12/07 01:05:13;;;;;;;188.07;14.03;;;;;;;7.35;100.00;100158.66;31289644;28;20140;-71
2021/12/07 01:51:29;;;;;;;146.97;12.57;;;;;;;7.33;100.00;100147.47;31295843;28;20137;-71
2021/12/07 02:06:32;;;;;;;83.73;9.60;;;;;;;7.31;100.00;100141.72;31291906;28;20045;-72
2021/12/07 02:21:34;;;;;;;154.03;12.70;;;;;;;7.32;100.00;100135.91;31301283;28;20392;-72
2021/12/07 02:36:36;;;;;;;170.00;15.50;;;;;;;7.37;100.00;100110.41;31293428;28;20049;-72
2021/12/07 02:51:38;;;;;;;164.83;12.80;;;;;;;7.40;100.00;100101.53;31303204;28;20484;-72
2021/12/07 03:37:18;;;;;;;113.20;11.33;;;;;;;7.41;100.00;100109.22;31319903;28;20045;-73
2021/12/07 03:52:20;;;;;;;148.33;13.57;;;;;;;7.46;100.00;100125.03;31320146;28;20075;-71
2021/12/07 04:07:22;;;;;;;174.07;11.37;;;;;;;7.44;100.00;100121.94;31320483;28;20498;-73
2021/12/07 04:22:25;;;;;;;138.23;10.53;;;;;;;7.46;100.00;100110.75;31302748;28;20106;-72
2021/12/07 04:37:28;;;;;;;196.23;16.50;;;;;;;7.47;100.00;100082.56;31299885;28;20057;-71
2021/12/07 05:08:01;;;;;;;193.30;19.63;;;;;;;7.45;100.00;100118.06;31285842;28;20044;-72
2021/12/07 05:38:23;;;;;;;282.57;20.90;;;;;;;7.46;100.00;100138.53;31300016;28;20564;-73
2021/12/07 05:53:26;;;;;;;229.83;19.70;;;;;;;7.39;100.00;100121.59;31307553;28;20049;-74
2021/12/07 06:08:27;;;;;;;201.63;18.03;;;;;;;7.34;100.00;100103.09;31303903;28;20049;-73
2021/12/07 06:23:29;;;;;;;238.77;18.40;;;;;;;7.34;100.00;100089.59;31313082;28;20048;-75
2021/12/07 06:38:34;;;;;;;149.93;15.47;;;;;;;7.40;100.00;100088.00;31349744;28;20053;-74
2021/12/07 06:53:36;;;;;;;172.73;16.80;;;;;;;7.45;100.00;100074.09;31317586;28;20057;-74
2021/12/07 07:08:38;;;;;;;89.33;14.33;;;;;;;7.51;100.00;100067.13;31321898;28;20103;-71
2021/12/07 07:23:40;;;;;;;60.50;16.13;;;;;;;7.64;100.00;100054.66;31341006;28;20055;-70
2021/12/07 07:38:45;;;;;;;52.93;15.67;;;;;;;7.80;100.00;100057.56;31297487;28;20097;-72
2021/12/07 07:53:48;;;;;;;45.07;14.80;;;;;;;8.04;100.00;100050.41;31327363;28;20049;-73
2021/12/07 08:08:50;;;;;;;56.70;18.13;;;;;;;8.33;100.00;100031.97;31338231;28;20140;-73
2021/12/07 08:23:52;;;;;;;51.60;17.03;;;;;;;8.68;100.00;100019.94;31348308;28;20077;-73
2021/12/07 08:38:55;;;;;;;29.30;12.77;;;;;;;8.74;100.00;99993.94;31301056;28;20104;-74
2021/12/07 08:54:18;;;;;;;32.07;13.67;;;;;;;8.87;100.00;99973.28;31326302;28;20065;-74
2021/12/07 09:09:21;;;;;;;34.17;14.67;;;;;;;9.11;100.00;99946.22;31316693;28;20430;-73
2021/12/07 09:24:25;;;;;;;30.93;13.00;;;;;;;9.40;100.00;99925.59;31327593;28;20061;-74
2021/12/07 09:39:27;;;;;;;32.50;12.70;;;;;;;9.78;100.00;99879.22;31345299;28;20061;-71
2021/12/07 09:54:29;;;;;;;22.37;10.23;;;;;;;10.80;100.00;99875.44;31310280;28;20593;-74
2021/12/07 10:09:31;;;;;;;17.17;8.67;;;;;;;11.36;100.00;99845.28;31365157;28;20141;-73
2021/12/07 10:24:39;;;;;;;17.47;8.27;;;;;;;12.32;100.00;99837.09;31320384;28;20048;-73
2021/12/07 10:39:44;;;;;;;12.63;6.43;;;;;;;11.98;100.00;99818.72;31337046;28;20057;-73
2021/12/07 10:54:52;;;;;;;11.90;6.17;;;;;;;11.74;100.00;99789.06;31362425;28;20127;-73
2021/12/07 11:10:04;;;;;;;15.63;5.97;;;;;;;11.65;100.00;99785.47;31307339;28;20532;-73
2021/12/07 11:25:07;;;;;;;8.77;5.37;;;;;;;12.12;100.00;99772.78;31330510;28;20151;-74
2021/12/07 11:40:10;;;;;;;13.20;6.17;;;;;;;12.18;100.00;99770.28;31273072;28;1390507;-73
2021/12/07 11:55:13;;;;;;;8.93;4.73;;;;;;;12.74;100.00;99736.97;31334438;28;20495;-74
2021/12/07 12:10:18;;;;;;;12.83;5.70;;;;;;;12.92;100.00;99743.31;31334434;28;20163;-75
2021/12/07 12:25:25;;;;;;;9.77;4.73;;;;;;;12.51;100.00;99741.59;31300990;28;20115;-72
2021/12/07 12:40:32;;;;;;;9.60;4.60;;;;;;;12.11;100.00;99741.34;31317215;28;20055;-73
2021/12/07 12:55:41;;;;;;;9.00;5.03;;;;;;;11.60;100.00;99763.03;31294819;28;20060;-73
2021/12/07 13:10:56;;;;;;;15.83;5.43;;;;;;;11.26;100.00;99760.94;31325676;28;20131;-74
2021/12/07 13:25:58;;;;;;;14.03;5.37;;;;;;;11.05;100.00;99758.81;31289786;28;20067;-74
2021/12/07 13:41:15;;;;;;;12.97;6.37;;;;;;;10.80;100.00;99761.41;31320165;28;20087;-72
2021/12/07 13:56:18;;;;;;;14.87;6.00;;;;;;;10.65;100.00;99771.09;31341795;28;20418;-73
2021/12/07 14:11:20;;;;;;;9.03;5.73;;;;;;;10.43;100.00;99749.91;31312198;28;20489;-74
2021/12/07 14:26:24;;;;;;;10.93;5.60;;;;;;;10.28;100.00;99739.84;31346047;28;20052;-74
2021/12/07 14:41:28;;;;;;;8.57;5.03;;;;;;;10.11;100.00;99711.94;31375425;28;20075;-81
2021/12/07 14:56:34;;;;;;;12.43;6.23;;;;;;;9.99;100.00;99697.09;31371873;28;20637;-81
2021/12/07 15:11:38;;;;;;;17.87;6.63;;;;;;;9.85;100.00;99711.75;31417543;28;20049;-82
2021/12/07 15:26:42;;;;;;;10.73;6.17;;;;;;;9.64;100.00;99717.66;31305925;28;20060;-82
2021/12/07 15:41:49;;;;;;;12.43;6.40;;;;;;;9.49;100.00;99722.59;31363945;28;20054;-82
2021/12/07 15:56:58;;;;;;;14.10;6.27;;;;;;;9.35;100.00;99716.72;31348301;28;20053;-80
2021/12/07 16:12:14;;;;;;;13.17;7.00;;;;;;;9.21;100.00;99721.22;31357242;28;20056;-81
2021/12/07 16:27:16;;;;;;;9.57;6.37;;;;;;;9.15;99.88;99703.97;31340918;28;20060;-81
2021/12/07 16:42:19;;;;;;;13.07;6.90;;;;;;;9.13;98.50;99700.16;31363836;28;20454;-78
2021/12/07 16:57:26;;;;;;;14.87;6.60;;;;;;;9.11;98.70;99713.34;31400481;28;20182;-82
2021/12/07 17:12:36;;;;;;;13.83;6.90;;;;;;;9.07;97.37;99702.56;31360135;28;20059;-83
2021/12/07 17:27:40;;;;;;;12.20;7.33;;;;;;;8.95;97.96;99683.50;31370703;28;20093;-82
2021/12/07 17:42:42;;;;;;;18.93;9.83;;;;;;;8.60;99.19;99668.69;31379208;28;20045;-82
2021/12/07 17:57:46;;;;;;;15.93;9.40;;;;;;;8.31;97.93;99658.34;31328933;28;20057;-82
2021/12/07 18:12:48;;;;;;;18.57;8.97;;;;;;;7.99;100.00;99647.34;31297100;28;20053;-79
2021/12/07 18:27:51;;;;;;;21.93;9.07;;;;;;;7.66;100.00;99668.66;31339235;28;20141;-80
2021/12/07 18:42:53;;;;;;;21.83;10.20;;;;;;;7.79;100.00;99645.31;31311995;28;20132;-81
2021/12/07 18:57:55;;;;;;;24.73;10.60;;;;;;;7.59;100.00;99630.94;31303769;28;20136;-78
2021/12/07 19:12:57;;;;;;;27.80;12.13;;;;;;;7.31;100.00;99624.03;31314803;28;20077;-79
2021/12/07 19:27:59;;;;;;;26.33;12.77;;;;;;;7.16;100.00;99615.38;31320635;28;20104;-80
2021/12/07 19:43:03;;;;;;;28.90;13.20;;;;;;;7.09;100.00;99603.88;31310051;28;20052;-79
2021/12/07 19:58:05;;;;;;;32.00;14.30;;;;;;;6.99;100.00;99607.50;31308540;28;20574;-78
2021/12/07 20:13:16;;;;;;;31.90;15.50;;;;;;;6.84;100.00;99588.06;31307894;28;20406;-78
2021/12/07 20:28:21;;;;;;;31.33;13.13;;;;;;;6.84;100.00;99583.41;31331928;28;20061;-79
2021/12/07 20:43:49;;;;;;;30.57;12.00;;;;;;;6.84;100.00;99588.06;31311639;28;20087;-78
2021/12/07 20:58:52;;;;;;;24.47;10.50;;;;;;;6.73;100.00;99592.81;31339281;28;21253;-78
2021/12/07 21:13:56;;;;;;;24.97;9.77;;;;;;;6.72;100.00;99588.56;31311031;28;20059;-76
2021/12/07 21:28:59;;;;;;;26.57;10.47;;;;;;;6.74;100.00;99576.22;31334893;28;20056;-78
2021/12/07 21:44:01;;;;;;;19.20;9.70;;;;;;;6.71;100.00;99576.25;31291955;28;20055;-79
2021/12/07 21:59:05;;;;;;;18.17;7.80;;;;;;;6.76;100.00;99543.44;31318257;28;20045;-77
2021/12/07 22:14:08;;;;;;;14.60;7.43;;;;;;;6.69;100.00;99538.13;31301915;28;20141;-77
2021/12/07 22:29:10;;;;;;;21.03;7.87;;;;;;;6.64;100.00;99546.66;31338737;28;20046;-78
2021/12/07 22:44:12;;;;;;;18.93;8.40;;;;;;;6.58;100.00;99543.66;31298922;28;20044;-78
2021/12/07 22:59:21;;;;;;;17.57;7.77;;;;;;;6.47;100.00;99522.22;31302608;28;20057;-78
2021/12/07 23:14:24;;;;;;;19.33;9.00;;;;;;;6.36;100.00;99505.41;31304299;28;20053;-79
2021/12/07 23:29:27;;;;;;;18.30;8.97;;;;;;;6.22;100.00;99531.75;31314211;28;20057;-78
2021/12/07 23:44:29;;;;;;;16.80;9.50;;;;;;;5.97;100.00;99530.09;31288964;28;20049;-78
2021/12/07 23:59:30;;;;;;;16.37;8.90;;;;;;;5.66;100.00;99545.38;31291386;28;20056;-78
